sensor_id;sensor_type;location;lat;lon;timestamp;temperature;humidity
17053;DHT22;8643;48.824;11.422;2022-07-30T00:01:18;17.90;99.90
17053;DHT22;8643;48.824;11.422;2022-07-30T00:03:47;17.90;99.90
17053;DHT22;8643;48.824;11.422;2022-07-30T00:06:17;17.80;99.90
17053;DHT22;8643;48.824;11.422;2022-07-30T00:08:45;17.60;99.90
17053;DHT22;8643;48.824;11.422;2022-07-30T00:11:13;17.50;99.90
17053;DHT22;8643;48.824;11.422;2022-07-30T00:13:43;17.50;99.90
17053;DHT22;8643;48.824;11.422;2022-07-30T00:16:11;17.40;99.90
17053;DHT22;8643;48.824;11.422;2022-07-30T00:18:40;17.40;99.90
17053;DHT22;8643;48.824;11.422;2022-07-30T00:21:08;17.20;99.90
17053;DHT22;8643;48.824;11.422;2022-07-30T00:23:45;18.40;99.90
17053;DHT22;8643;48.824;11.422;2022-07-30T00:26:27;17.00;99.90
17053;DHT22;8643;48.824;11.422;2022-07-30T00:28:57;17.00;99.90
17053;DHT22;8643;48.824;11.422;2022-07-30T00:31:27;17.00;99.90
17053;DHT22;8643;48.824;11.422;2022-07-30T00:33:56;16.80;99.90
17053;DHT22;8643;48.824;11.422;2022-07-30T00:36:24;16.90;99.90
17053;DHT22;8643;48.824;11.422;2022-07-30T00:38:52;16.70;99.90
17053;DHT22;8643;48.824;11.422;2022-07-30T00:41:21;16.60;99.90
17053;DHT22;8643;48.824;11.422;2022-07-30T00:46:22;15.00;99.90
17053;DHT22;8643;48.824;11.422;2022-07-30T00:48:50;16.50;99.90
17053;DHT22;8643;48.824;11.422;2022-07-30T00:51:19;16.40;99.90
17053;DHT22;8643;48.824;11.422;2022-07-30T00:53:47;16.20;99.90
17053;DHT22;8643;48.824;11.422;2022-07-30T00:56:15;16.20;99.90
17053;DHT22;8643;48.824;11.422;2022-07-30T00:58:44;16.20;99.90
17053;DHT22;8643;48.824;11.422;2022-07-30T01:01:12;16.20;99.90
17053;DHT22;8643;48.824;11.422;2022-07-30T01:03:42;16.30;99.90
17053;DHT22;8643;48.824;11.422;2022-07-30T01:06:10;16.30;99.90
17053;DHT22;8643;48.824;11.422;2022-07-30T01:08:40;16.30;99.90
17053;DHT22;8643;48.824;11.422;2022-07-30T01:11:09;20.40;99.90
17053;DHT22;8643;48.824;11.422;2022-07-30T01:13:41;16.90;99.90
17053;DHT22;8643;48.824;11.422;2022-07-30T01:16:10;17.10;99.90
17053;DHT22;8643;48.824;11.422;2022-07-30T01:18:42;17.40;99.90
17053;DHT22;8643;48.824;11.422;2022-07-30T01:21:33;17.50;99.90
17053;DHT22;8643;48.824;11.422;2022-07-30T01:24:16;17.70;99.90
17053;DHT22;8643;48.824;11.422;2022-07-30T01:26:54;17.00;99.90
17053;DHT22;8643;48.824;11.422;2022-07-30T01:29:26;17.90;99.90
17053;DHT22;8643;48.824;11.422;2022-07-30T01:31:56;16.30;99.90
17053;DHT22;8643;48.824;11.422;2022-07-30T01:34:28;18.00;99.90
17053;DHT22;8643;48.824;11.422;2022-07-30T01:37:01;18.00;99.90
17053;DHT22;8643;48.824;11.422;2022-07-30T01:39:32;18.00;99.90
17053;DHT22;8643;48.824;11.422;2022-07-30T01:42:04;18.00;99.90
17053;DHT22;8643;48.824;11.422;2022-07-30T01:44:35;18.00;99.90
17053;DHT22;8643;48.824;11.422;2022-07-30T01:47:09;18.10;99.90
17053;DHT22;8643;48.824;11.422;2022-07-30T01:49:40;18.20;99.90
17053;DHT22;8643;48.824;11.422;2022-07-30T01:52:09;18.20;99.90
17053;DHT22;8643;48.824;11.422;2022-07-30T01:57:13;18.20;99.90
17053;DHT22;8643;48.824;11.422;2022-07-30T01:59:46;18.20;99.90
17053;DHT22;8643;48.824;11.422;2022-07-30T02:02:19;18.00;99.90
17053;DHT22;8643;48.824;11.422;2022-07-30T02:04:48;18.10;99.90
17053;DHT22;8643;48.824;11.422;2022-07-30T02:07:22;18.10;99.90
17053;DHT22;8643;48.824;11.422;2022-07-30T02:09:58;18.00;99.90
17053;DHT22;8643;48.824;11.422;2022-07-30T02:12:42;18.00;99.90
17053;DHT22;8643;48.824;11.422;2022-07-30T02:15:24;18.00;99.90
17053;DHT22;8643;48.824;11.422;2022-07-30T02:18:02;18.10;99.90
17053;DHT22;8643;48.824;11.422;2022-07-30T02:20:36;18.10;99.90
17053;DHT22;8643;48.824;11.422;2022-07-30T02:23:15;18.10;99.90
17053;DHT22;8643;48.824;11.422;2022-07-30T02:25:48;18.10;99.90
17053;DHT22;8643;48.824;11.422;2022-07-30T02:28:23;18.10;99.90
17053;DHT22;8643;48.824;11.422;2022-07-30T02:30:55;18.10;99.90
17053;DHT22;8643;48.824;11.422;2022-07-30T02:33:33;18.00;99.90
17053;DHT22;8643;48.824;11.422;2022-07-30T02:36:16;18.00;99.90
17053;DHT22;8643;48.824;11.422;2022-07-30T02:38:47;18.10;99.90
17053;DHT22;8643;48.824;11.422;2022-07-30T02:41:19;18.10;99.90
17053;DHT22;8643;48.824;11.422;2022-07-30T02:43:52;18.00;99.90
17053;DHT22;8643;48.824;11.422;2022-07-30T02:46:24;18.00;99.90
17053;DHT22;8643;48.824;11.422;2022-07-30T02:49:13;18.00;99.90
17053;DHT22;8643;48.824;11.422;2022-07-30T02:51:45;18.10;99.90
17053;DHT22;8643;48.824;11.422;2022-07-30T02:54:17;18.10;99.90
17053;DHT22;8643;48.824;11.422;2022-07-30T02:56:48;18.10;99.90
17053;DHT22;8643;48.824;11.422;2022-07-30T02:59:21;18.10;99.90
17053;DHT22;8643;48.824;11.422;2022-07-30T03:01:53;18.20;99.90
17053;DHT22;8643;48.824;11.422;2022-07-30T03:04:24;18.10;99.90
17053;DHT22;8643;48.824;11.422;2022-07-30T03:06:55;18.20;99.90
17053;DHT22;8643;48.824;11.422;2022-07-30T03:09:24;18.10;99.90
17053;DHT22;8643;48.824;11.422;2022-07-30T03:12:13;18.20;99.90
17053;DHT22;8643;48.824;11.422;2022-07-30T03:14:44;18.30;99.90
17053;DHT22;8643;48.824;11.422;2022-07-30T03:17:14;18.20;99.90
17053;DHT22;8643;48.824;11.422;2022-07-30T03:19:44;18.20;99.90
17053;DHT22;8643;48.824;11.422;2022-07-30T03:22:17;18.20;99.90
17053;DHT22;8643;48.824;11.422;2022-07-30T03:27:18;18.30;99.90
17053;DHT22;8643;48.824;11.422;2022-07-30T03:29:48;18.20;99.90
17053;DHT22;8643;48.824;11.422;2022-07-30T03:32:20;18.20;99.90
17053;DHT22;8643;48.824;11.422;2022-07-30T03:34:52;18.20;99.90
17053;DHT22;8643;48.824;11.422;2022-07-30T03:37:23;18.20;99.90
17053;DHT22;8643;48.824;11.422;2022-07-30T03:39:54;18.10;99.90
17053;DHT22;8643;48.824;11.422;2022-07-30T03:42:27;18.10;99.90
17053;DHT22;8643;48.824;11.422;2022-07-30T03:44:57;18.00;99.90
17053;DHT22;8643;48.824;11.422;2022-07-30T03:47:30;18.00;99.90
17053;DHT22;8643;48.824;11.422;2022-07-30T03:52:33;17.90;99.90
17053;DHT22;8643;48.824;11.422;2022-07-30T03:55:09;18.00;99.90
17053;DHT22;8643;48.824;11.422;2022-07-30T03:57:47;18.00;99.90
17053;DHT22;8643;48.824;11.422;2022-07-30T04:00:19;18.00;99.90
17053;DHT22;8643;48.824;11.422;2022-07-30T04:02:51;18.00;99.90
17053;DHT22;8643;48.824;11.422;2022-07-30T04:05:30;18.10;99.90
17053;DHT22;8643;48.824;11.422;2022-07-30T04:10:37;17.90;99.90
17053;DHT22;8643;48.824;11.422;2022-07-30T04:13:31;17.80;99.90
17053;DHT22;8643;48.824;11.422;2022-07-30T04:16:06;17.70;99.90
17053;DHT22;8643;48.824;11.422;2022-07-30T04:19:02;17.60;99.90
17053;DHT22;8643;48.824;11.422;2022-07-30T04:21:35;17.50;99.90
17053;DHT22;8643;48.824;11.422;2022-07-30T04:24:05;17.50;99.90
17053;DHT22;8643;48.824;11.422;2022-07-30T04:26:37;17.50;99.90
17053;DHT22;8643;48.824;11.422;2022-07-30T04:31:45;17.40;99.90
17053;DHT22;8643;48.824;11.422;2022-07-30T04:34:34;17.50;99.90
17053;DHT22;8643;48.824;11.422;2022-07-30T04:37:06;17.50;99.90
17053;DHT22;8643;48.824;11.422;2022-07-30T04:39:35;17.50;99.90
17053;DHT22;8643;48.824;11.422;2022-07-30T04:42:03;17.50;99.90
17053;DHT22;8643;48.824;11.422;2022-07-30T04:44:35;17.50;99.90
17053;DHT22;8643;48.824;11.422;2022-07-30T04:47:43;17.50;99.90
17053;DHT22;8643;48.824;11.422;2022-07-30T04:50:40;17.50;99.90
17053;DHT22;8643;48.824;11.422;2022-07-30T04:53:15;17.40;99.90
17053;DHT22;8643;48.824;11.422;2022-07-30T04:55:54;19.00;99.90
17053;DHT22;8643;48.824;11.422;2022-07-30T04:58:27;17.50;99.90
17053;DHT22;8643;48.824;11.422;2022-07-30T05:00:57;17.50;99.90
17053;DHT22;8643;48.824;11.422;2022-07-30T05:03:31;17.50;99.90
17053;DHT22;8643;48.824;11.422;2022-07-30T05:06:02;17.60;99.90
17053;DHT22;8643;48.824;11.422;2022-07-30T05:08:36;17.60;99.90
17053;DHT22;8643;48.824;11.422;2022-07-30T05:11:10;17.60;99.90
17053;DHT22;8643;48.824;11.422;2022-07-30T05:13:40;17.80;99.90
17053;DHT22;8643;48.824;11.422;2022-07-30T05:16:13;17.60;99.90
17053;DHT22;8643;48.824;11.422;2022-07-30T05:18:44;17.60;99.90
17053;DHT22;8643;48.824;11.422;2022-07-30T05:21:12;17.50;99.90
17053;DHT22;8643;48.824;11.422;2022-07-30T05:23:47;17.50;99.90
17053;DHT22;8643;48.824;11.422;2022-07-30T05:26:52;17.60;99.90
17053;DHT22;8643;48.824;11.422;2022-07-30T05:29:21;17.60;99.90
17053;DHT22;8643;48.824;11.422;2022-07-30T05:31:55;17.40;99.90
17053;DHT22;8643;48.824;11.422;2022-07-30T05:34:31;17.70;99.90
17053;DHT22;8643;48.824;11.422;2022-07-30T05:36:59;17.80;99.90
17053;DHT22;8643;48.824;11.422;2022-07-30T05:39:29;17.90;99.90
17053;DHT22;8643;48.824;11.422;2022-07-30T05:42:17;18.00;99.90
17053;DHT22;8643;48.824;11.422;2022-07-30T05:44:48;18.10;99.90
17053;DHT22;8643;48.824;11.422;2022-07-30T05:47:16;18.10;99.90
17053;DHT22;8643;48.824;11.422;2022-07-30T05:49:50;18.10;99.90
17053;DHT22;8643;48.824;11.422;2022-07-30T05:52:18;18.10;99.90
17053;DHT22;8643;48.824;11.422;2022-07-30T05:54:47;18.10;99.90
17053;DHT22;8643;48.824;11.422;2022-07-30T05:57:48;18.20;99.90
17053;DHT22;8643;48.824;11.422;2022-07-30T06:00:17;18.30;99.90
17053;DHT22;8643;48.824;11.422;2022-07-30T06:02:52;18.50;99.90
17053;DHT22;8643;48.824;11.422;2022-07-30T06:05:44;18.70;99.90
17053;DHT22;8643;48.824;11.422;2022-07-30T06:10:41;18.80;99.90
17053;DHT22;8643;48.824;11.422;2022-07-30T06:13:11;18.70;99.90
17053;DHT22;8643;48.824;11.422;2022-07-30T06:15:39;19.00;99.90
17053;DHT22;8643;48.824;11.422;2022-07-30T06:18:08;19.10;99.90
17053;DHT22;8643;48.824;11.422;2022-07-30T06:20:43;19.20;99.90
17053;DHT22;8643;48.824;11.422;2022-07-30T06:23:41;19.30;99.90
17053;DHT22;8643;48.824;11.422;2022-07-30T06:26:17;19.30;99.90
17053;DHT22;8643;48.824;11.422;2022-07-30T06:28:46;20.20;99.90
17053;DHT22;8643;48.824;11.422;2022-07-30T06:31:19;19.60;99.90
17053;DHT22;8643;48.824;11.422;2022-07-30T06:33:48;19.80;99.90
17053;DHT22;8643;48.824;11.422;2022-07-30T06:36:17;20.00;99.90
17053;DHT22;8643;48.824;11.422;2022-07-30T06:42:06;20.40;99.90
17053;DHT22;8643;48.824;11.422;2022-07-30T06:45:01;20.50;99.90
17053;DHT22;8643;48.824;11.422;2022-07-30T06:47:49;20.70;99.90
17053;DHT22;8643;48.824;11.422;2022-07-30T06:50:18;20.80;99.90
17053;DHT22;8643;48.824;11.422;2022-07-30T06:52:47;20.70;99.90
17053;DHT22;8643;48.824;11.422;2022-07-30T06:55:16;20.70;99.90
17053;DHT22;8643;48.824;11.422;2022-07-30T07:00:43;21.10;99.90
17053;DHT22;8643;48.824;11.422;2022-07-30T07:03:13;21.30;99.90
17053;DHT22;8643;48.824;11.422;2022-07-30T07:05:41;21.30;99.90
17053;DHT22;8643;48.824;11.422;2022-07-30T07:08:11;21.30;99.90
17053;DHT22;8643;48.824;11.422;2022-07-30T07:10:46;21.40;99.90
17053;DHT22;8643;48.824;11.422;2022-07-30T07:13:24;21.60;99.90
17053;DHT22;8643;48.824;11.422;2022-07-30T07:15:52;21.70;99.90
17053;DHT22;8643;48.824;11.422;2022-07-30T07:18:22;21.80;99.90
17053;DHT22;8643;48.824;11.422;2022-07-30T07:20:59;21.90;99.90
17053;DHT22;8643;48.824;11.422;2022-07-30T07:23:29;22.00;99.90
17053;DHT22;8643;48.824;11.422;2022-07-30T07:26:28;22.10;99.90
17053;DHT22;8643;48.824;11.422;2022-07-30T07:28:58;22.10;99.90
17053;DHT22;8643;48.824;11.422;2022-07-30T07:31:31;21.80;99.90
17053;DHT22;8643;48.824;11.422;2022-07-30T07:34:20;22.40;99.90
17053;DHT22;8643;48.824;11.422;2022-07-30T07:36:48;22.40;99.90
17053;DHT22;8643;48.824;11.422;2022-07-30T07:39:18;22.50;99.90
17053;DHT22;8643;48.824;11.422;2022-07-30T07:41:48;22.70;99.90
17053;DHT22;8643;48.824;11.422;2022-07-30T07:46:50;22.90;99.90
17053;DHT22;8643;48.824;11.422;2022-07-30T07:49:19;22.70;99.90
17053;DHT22;8643;48.824;11.422;2022-07-30T07:51:50;24.00;99.90
17053;DHT22;8643;48.824;11.422;2022-07-30T07:54:20;23.20;99.90
17053;DHT22;8643;48.824;11.422;2022-07-30T07:56:52;23.00;99.90
17053;DHT22;8643;48.824;11.422;2022-07-30T07:59:36;23.20;99.90
17053;DHT22;8643;48.824;11.422;2022-07-30T08:02:15;23.40;99.90
17053;DHT22;8643;48.824;11.422;2022-07-30T08:04:58;23.60;99.90
17053;DHT22;8643;48.824;11.422;2022-07-30T08:07:46;23.50;99.90
17053;DHT22;8643;48.824;11.422;2022-07-30T08:10:42;23.40;99.90
17053;DHT22;8643;48.824;11.422;2022-07-30T08:13:13;22.90;99.90
17053;DHT22;8643;48.824;11.422;2022-07-30T08:16:20;22.90;99.90
17053;DHT22;8643;48.824;11.422;2022-07-30T08:19:07;23.30;99.90
17053;DHT22;8643;48.824;11.422;2022-07-30T08:21:39;23.80;99.90
17053;DHT22;8643;48.824;11.422;2022-07-30T08:26:38;23.50;99.90
17053;DHT22;8643;48.824;11.422;2022-07-30T08:29:06;22.50;99.90
17053;DHT22;8643;48.824;11.422;2022-07-30T08:31:42;24.10;99.90
17053;DHT22;8643;48.824;11.422;2022-07-30T08:34:11;24.30;99.40
17053;DHT22;8643;48.824;11.422;2022-07-30T08:36:40;24.10;99.90
17053;DHT22;8643;48.824;11.422;2022-07-30T08:39:09;23.80;99.90
17053;DHT22;8643;48.824;11.422;2022-07-30T08:41:40;23.20;99.90
17053;DHT22;8643;48.824;11.422;2022-07-30T08:44:10;23.60;99.90
17053;DHT22;8643;48.824;11.422;2022-07-30T08:46:41;23.60;99.90
17053;DHT22;8643;48.824;11.422;2022-07-30T08:49:43;23.90;99.90
17053;DHT22;8643;48.824;11.422;2022-07-30T08:52:13;23.60;99.90
17053;DHT22;8643;48.824;11.422;2022-07-30T08:54:54;23.60;99.90
17053;DHT22;8643;48.824;11.422;2022-07-30T08:57:23;23.30;99.90
17053;DHT22;8643;48.824;11.422;2022-07-30T09:02:30;23.90;99.90
17053;DHT22;8643;48.824;11.422;2022-07-30T09:05:03;24.70;99.80
17053;DHT22;8643;48.824;11.422;2022-07-30T09:07:34;24.70;97.80
17053;DHT22;8643;48.824;11.422;2022-07-30T09:10:07;24.90;97.70
17053;DHT22;8643;48.824;11.422;2022-07-30T09:12:40;24.40;96.50
17053;DHT22;8643;48.824;11.422;2022-07-30T09:15:13;25.00;95.90
17053;DHT22;8643;48.824;11.422;2022-07-30T09:18:01;25.00;96.10
17053;DHT22;8643;48.824;11.422;2022-07-30T09:20:35;25.50;95.90
17053;DHT22;8643;48.824;11.422;2022-07-30T09:23:07;25.70;93.80
17053;DHT22;8643;48.824;11.422;2022-07-30T09:25:37;25.70;93.30
17053;DHT22;8643;48.824;11.422;2022-07-30T09:28:29;25.80;95.20
17053;DHT22;8643;48.824;11.422;2022-07-30T09:31:20;25.80;92.30
17053;DHT22;8643;48.824;11.422;2022-07-30T09:34:23;25.70;91.10
17053;DHT22;8643;48.824;11.422;2022-07-30T09:36:56;25.30;87.80
17053;DHT22;8643;48.824;11.422;2022-07-30T09:39:44;25.10;90.90
17053;DHT22;8643;48.824;11.422;2022-07-30T09:43:00;25.30;90.70
17053;DHT22;8643;48.824;11.422;2022-07-30T09:45:33;25.60;90.60
17053;DHT22;8643;48.824;11.422;2022-07-30T09:48:19;26.10;86.00
17053;DHT22;8643;48.824;11.422;2022-07-30T09:50:50;26.30;77.30
17053;DHT22;8643;48.824;11.422;2022-07-30T09:53:20;26.30;82.80
17053;DHT22;8643;48.824;11.422;2022-07-30T09:55:49;26.60;79.90
17053;DHT22;8643;48.824;11.422;2022-07-30T10:00:57;26.70;74.50
17053;DHT22;8643;48.824;11.422;2022-07-30T10:03:40;26.30;74.10
17053;DHT22;8643;48.824;11.422;2022-07-30T10:06:41;26.10;72.00
17053;DHT22;8643;48.824;11.422;2022-07-30T10:09:26;26.40;72.20
17053;DHT22;8643;48.824;11.422;2022-07-30T10:11:58;26.40;70.00
17053;DHT22;8643;48.824;11.422;2022-07-30T10:14:32;25.80;69.00
17053;DHT22;8643;48.824;11.422;2022-07-30T10:17:14;25.30;71.40
17053;DHT22;8643;48.824;11.422;2022-07-30T10:20:12;26.10;69.80
17053;DHT22;8643;48.824;11.422;2022-07-30T10:22:59;26.80;65.80
17053;DHT22;8643;48.824;11.422;2022-07-30T10:25:35;27.20;65.50
17053;DHT22;8643;48.824;11.422;2022-07-30T10:28:39;26.60;63.20
17053;DHT22;8643;48.824;11.422;2022-07-30T10:31:09;26.80;65.60
17053;DHT22;8643;48.824;11.422;2022-07-30T10:33:59;27.40;64.70
17053;DHT22;8643;48.824;11.422;2022-07-30T10:36:29;27.00;64.80
17053;DHT22;8643;48.824;11.422;2022-07-30T10:38:59;26.00;63.70
17053;DHT22;8643;48.824;11.422;2022-07-30T10:41:38;25.50;66.50
17053;DHT22;8643;48.824;11.422;2022-07-30T10:44:30;25.10;68.70
17053;DHT22;8643;48.824;11.422;2022-07-30T10:47:21;25.60;65.60
17053;DHT22;8643;48.824;11.422;2022-07-30T10:52:48;25.30;64.60
17053;DHT22;8643;48.824;11.422;2022-07-30T10:55:20;25.00;64.50
17053;DHT22;8643;48.824;11.422;2022-07-30T10:58:05;25.30;66.50
17053;DHT22;8643;48.824;11.422;2022-07-30T11:00:58;26.50;62.40
17053;DHT22;8643;48.824;11.422;2022-07-30T11:03:28;26.90;61.20
17053;DHT22;8643;48.824;11.422;2022-07-30T11:06:27;26.20;61.30
17053;DHT22;8643;48.824;11.422;2022-07-30T11:08:56;25.60;62.50
17053;DHT22;8643;48.824;11.422;2022-07-30T11:11:43;25.90;61.00
17053;DHT22;8643;48.824;11.422;2022-07-30T11:14:55;27.00;55.50
17053;DHT22;8643;48.824;11.422;2022-07-30T11:18:05;27.70;57.80
17053;DHT22;8643;48.824;11.422;2022-07-30T11:20:39;28.50;55.80
17053;DHT22;8643;48.824;11.422;2022-07-30T11:23:38;28.70;57.10
17053;DHT22;8643;48.824;11.422;2022-07-30T11:26:07;28.50;56.00
17053;DHT22;8643;48.824;11.422;2022-07-30T11:28:42;27.60;55.30
17053;DHT22;8643;48.824;11.422;2022-07-30T11:31:27;27.50;57.20
17053;DHT22;8643;48.824;11.422;2022-07-30T11:34:27;26.50;58.60
17053;DHT22;8643;48.824;11.422;2022-07-30T11:37:05;25.70;59.90
17053;DHT22;8643;48.824;11.422;2022-07-30T11:40:08;26.60;60.30
17053;DHT22;8643;48.824;11.422;2022-07-30T11:42:39;27.30;58.30
17053;DHT22;8643;48.824;11.422;2022-07-30T11:45:19;28.10;55.90
17053;DHT22;8643;48.824;11.422;2022-07-30T11:47:57;28.30;56.30
17053;DHT22;8643;48.824;11.422;2022-07-30T11:50:30;27.70;58.80
17053;DHT22;8643;48.824;11.422;2022-07-30T11:53:02;27.60;57.60
17053;DHT22;8643;48.824;11.422;2022-07-30T11:55:35;28.30;56.40
17053;DHT22;8643;48.824;11.422;2022-07-30T11:58:07;28.80;53.90
17053;DHT22;8643;48.824;11.422;2022-07-30T12:00:37;28.80;54.60
17053;DHT22;8643;48.824;11.422;2022-07-30T12:03:11;28.70;56.00
17053;DHT22;8643;48.824;11.422;2022-07-30T12:05:41;28.60;53.50
17053;DHT22;8643;48.824;11.422;2022-07-30T12:08:16;28.50;53.90
17053;DHT22;8643;48.824;11.422;2022-07-30T12:11:03;25.60;52.90
17053;DHT22;8643;48.824;11.422;2022-07-30T12:16:12;28.30;54.30
17053;DHT22;8643;48.824;11.422;2022-07-30T12:18:44;28.60;57.50
17053;DHT22;8643;48.824;11.422;2022-07-30T12:21:13;29.00;53.60
17053;DHT22;8643;48.824;11.422;2022-07-30T12:23:52;29.10;54.00
17053;DHT22;8643;48.824;11.422;2022-07-30T12:26:25;28.60;52.80
17053;DHT22;8643;48.824;11.422;2022-07-30T12:28:55;29.20;51.30
17053;DHT22;8643;48.824;11.422;2022-07-30T12:31:25;29.20;49.90
17053;DHT22;8643;48.824;11.422;2022-07-30T12:33:54;29.10;51.60
17053;DHT22;8643;48.824;11.422;2022-07-30T12:36:29;29.10;52.90
17053;DHT22;8643;48.824;11.422;2022-07-30T12:39:00;29.20;51.50
17053;DHT22;8643;48.824;11.422;2022-07-30T12:41:42;29.30;50.40
17053;DHT22;8643;48.824;11.422;2022-07-30T12:47:01;29.50;52.20
17053;DHT22;8643;48.824;11.422;2022-07-30T12:49:32;29.40;52.80
17053;DHT22;8643;48.824;11.422;2022-07-30T12:52:23;29.60;52.10
17053;DHT22;8643;48.824;11.422;2022-07-30T12:54:58;28.80;53.10
17053;DHT22;8643;48.824;11.422;2022-07-30T12:57:50;28.50;52.40
17053;DHT22;8643;48.824;11.422;2022-07-30T13:00:20;28.90;50.70
17053;DHT22;8643;48.824;11.422;2022-07-30T13:02:49;29.20;51.30
17053;DHT22;8643;48.824;11.422;2022-07-30T13:05:18;29.60;49.90
17053;DHT22;8643;48.824;11.422;2022-07-30T13:07:56;29.20;49.30
17053;DHT22;8643;48.824;11.422;2022-07-30T13:10:27;28.90;50.00
17053;DHT22;8643;48.824;11.422;2022-07-30T13:12:58;28.90;50.00
17053;DHT22;8643;48.824;11.422;2022-07-30T13:15:28;29.40;50.60
17053;DHT22;8643;48.824;11.422;2022-07-30T13:17:56;29.50;49.50
17053;DHT22;8643;48.824;11.422;2022-07-30T13:22:53;29.70;49.00
17053;DHT22;8643;48.824;11.422;2022-07-30T13:25:27;29.70;49.90
17053;DHT22;8643;48.824;11.422;2022-07-30T13:28:07;29.10;51.30
17053;DHT22;8643;48.824;11.422;2022-07-30T13:30:35;28.70;50.30
17053;DHT22;8643;48.824;11.422;2022-07-30T13:33:04;28.70;51.90
17053;DHT22;8643;48.824;11.422;2022-07-30T13:38:00;28.10;50.90
17053;DHT22;8643;48.824;11.422;2022-07-30T13:40:29;28.20;52.10
17053;DHT22;8643;48.824;11.422;2022-07-30T13:42:59;28.70;50.30
17053;DHT22;8643;48.824;11.422;2022-07-30T13:45:29;29.00;51.40
17053;DHT22;8643;48.824;11.422;2022-07-30T13:47:58;28.10;50.80
17053;DHT22;8643;48.824;11.422;2022-07-30T13:50:26;28.00;52.10
17053;DHT22;8643;48.824;11.422;2022-07-30T13:52:54;27.80;51.80
17053;DHT22;8643;48.824;11.422;2022-07-30T13:55:28;27.70;51.90
17053;DHT22;8643;48.824;11.422;2022-07-30T14:03:00;27.50;51.80
17053;DHT22;8643;48.824;11.422;2022-07-30T14:05:30;27.50;52.10
17053;DHT22;8643;48.824;11.422;2022-07-30T14:07:59;27.80;52.00
17053;DHT22;8643;48.824;11.422;2022-07-30T14:10:27;28.40;52.10
17053;DHT22;8643;48.824;11.422;2022-07-30T14:12:56;27.80;51.30
17053;DHT22;8643;48.824;11.422;2022-07-30T14:15:27;27.90;52.50
17053;DHT22;8643;48.824;11.422;2022-07-30T14:17:58;27.70;52.10
17053;DHT22;8643;48.824;11.422;2022-07-30T14:20:28;27.30;52.60
17053;DHT22;8643;48.824;11.422;2022-07-30T14:22:56;28.60;52.80
17053;DHT22;8643;48.824;11.422;2022-07-30T14:25:25;28.30;52.20
17053;DHT22;8643;48.824;11.422;2022-07-30T14:30:22;28.50;52.30
17053;DHT22;8643;48.824;11.422;2022-07-30T14:32:50;28.90;51.00
17053;DHT22;8643;48.824;11.422;2022-07-30T14:35:28;29.30;50.60
17053;DHT22;8643;48.824;11.422;2022-07-30T14:40:25;29.50;50.00
17053;DHT22;8643;48.824;11.422;2022-07-30T14:42:53;29.20;51.30
17053;DHT22;8643;48.824;11.422;2022-07-30T14:45:23;29.20;51.90
17053;DHT22;8643;48.824;11.422;2022-07-30T14:47:54;29.10;50.30
17053;DHT22;8643;48.824;11.422;2022-07-30T14:50:22;29.10;50.90
17053;DHT22;8643;48.824;11.422;2022-07-30T14:52:52;29.40;50.20
17053;DHT22;8643;48.824;11.422;2022-07-30T14:55:20;29.50;50.10
17053;DHT22;8643;48.824;11.422;2022-07-30T14:57:49;29.60;49.10
17053;DHT22;8643;48.824;11.422;2022-07-30T15:00:18;29.40;48.80
17053;DHT22;8643;48.824;11.422;2022-07-30T15:02:50;29.10;49.10
17053;DHT22;8643;48.824;11.422;2022-07-30T15:05:18;29.10;49.70
17053;DHT22;8643;48.824;11.422;2022-07-30T15:07:46;28.50;49.90
17053;DHT22;8643;48.824;11.422;2022-07-30T15:10:16;28.00;49.80
17053;DHT22;8643;48.824;11.422;2022-07-30T15:12:44;28.10;50.50
17053;DHT22;8643;48.824;11.422;2022-07-30T15:15:13;29.00;50.40
17053;DHT22;8643;48.824;11.422;2022-07-30T15:17:42;29.20;49.10
17053;DHT22;8643;48.824;11.422;2022-07-30T15:20:11;29.40;50.30
17053;DHT22;8643;48.824;11.422;2022-07-30T15:22:39;29.40;50.80
17053;DHT22;8643;48.824;11.422;2022-07-30T15:25:08;29.60;48.90
17053;DHT22;8643;48.824;11.422;2022-07-30T15:27:37;29.60;49.50
17053;DHT22;8643;48.824;11.422;2022-07-30T15:30:06;29.70;50.10
17053;DHT22;8643;48.824;11.422;2022-07-30T15:32:35;29.80;49.00
17053;DHT22;8643;48.824;11.422;2022-07-30T15:35:04;29.90;49.20
17053;DHT22;8643;48.824;11.422;2022-07-30T15:37:39;29.30;49.10
17053;DHT22;8643;48.824;11.422;2022-07-30T15:40:08;29.10;49.80
17053;DHT22;8643;48.824;11.422;2022-07-30T15:42:38;29.00;50.00
17053;DHT22;8643;48.824;11.422;2022-07-30T15:45:09;29.30;48.90
17053;DHT22;8643;48.824;11.422;2022-07-30T15:50:12;29.40;48.20
17053;DHT22;8643;48.824;11.422;2022-07-30T15:52:41;29.40;49.00
17053;DHT22;8643;48.824;11.422;2022-07-30T15:55:10;29.20;49.70
17053;DHT22;8643;48.824;11.422;2022-07-30T15:57:41;29.20;49.30
17053;DHT22;8643;48.824;11.422;2022-07-30T16:00:10;29.20;50.10
17053;DHT22;8643;48.824;11.422;2022-07-30T16:02:41;29.20;50.90
17053;DHT22;8643;48.824;11.422;2022-07-30T16:05:09;28.10;49.80
17053;DHT22;8643;48.824;11.422;2022-07-30T16:07:40;27.50;50.20
17053;DHT22;8643;48.824;11.422;2022-07-30T16:10:09;27.40;50.80
17053;DHT22;8643;48.824;11.422;2022-07-30T16:12:37;27.40;52.10
17053;DHT22;8643;48.824;11.422;2022-07-30T16:15:08;27.70;50.90
17053;DHT22;8643;48.824;11.422;2022-07-30T16:17:37;27.30;50.10
17053;DHT22;8643;48.824;11.422;2022-07-30T16:20:11;27.70;50.30
17053;DHT22;8643;48.824;11.422;2022-07-30T16:22:40;27.90;50.90
17053;DHT22;8643;48.824;11.422;2022-07-30T16:25:08;27.60;50.10
17053;DHT22;8643;48.824;11.422;2022-07-30T16:27:37;28.10;50.30
17053;DHT22;8643;48.824;11.422;2022-07-30T16:30:08;28.20;50.30
17053;DHT22;8643;48.824;11.422;2022-07-30T16:35:06;28.10;50.00
17053;DHT22;8643;48.824;11.422;2022-07-30T16:37:39;27.20;50.50
17053;DHT22;8643;48.824;11.422;2022-07-30T16:40:08;28.20;50.60
17053;DHT22;8643;48.824;11.422;2022-07-30T16:42:37;28.20;50.90
17053;DHT22;8643;48.824;11.422;2022-07-30T16:45:07;28.10;51.40
17053;DHT22;8643;48.824;11.422;2022-07-30T16:47:36;28.00;51.10
17053;DHT22;8643;48.824;11.422;2022-07-30T16:50:05;28.10;50.10
17053;DHT22;8643;48.824;11.422;2022-07-30T16:52:34;28.10;50.80
17053;DHT22;8643;48.824;11.422;2022-07-30T16:55:25;28.10;50.70
17053;DHT22;8643;48.824;11.422;2022-07-30T16:57:54;27.90;50.90
17053;DHT22;8643;48.824;11.422;2022-07-30T17:00:24;27.90;51.60
17053;DHT22;8643;48.824;11.422;2022-07-30T17:02:52;27.40;50.60
17053;DHT22;8643;48.824;11.422;2022-07-30T17:05:22;27.20;50.60
17053;DHT22;8643;48.824;11.422;2022-07-30T17:07:50;27.10;51.50
17053;DHT22;8643;48.824;11.422;2022-07-30T17:10:19;26.90;50.80
17053;DHT22;8643;48.824;11.422;2022-07-30T17:12:51;27.60;52.70
17053;DHT22;8643;48.824;11.422;2022-07-30T17:15:24;26.60;52.00
17053;DHT22;8643;48.824;11.422;2022-07-30T17:17:58;26.50;52.60